createdAt,value
2023-04-08T00:23:44.295Z,47.03
2023-04-08T00:26:11.060Z,44.17
2023-04-08T00:28:38.291Z,46.65
2023-04-08T00:31:05.345Z,34.33
2023-04-08T00:33:32.506Z,38.90
2023-04-08T01:08:14.805Z,49.65
2023-04-08T03:23:55.304Z,99.03
2023-04-08T03:26:22.053Z,91.70
2023-04-08T03:28:48.991Z,92.47
2023-04-08T03:31:16.033Z,94.30
2023-04-08T03:48:56.657Z,88.10
2023-04-08T03:51:23.561Z,93.78
2023-04-08T03:53:50.321Z,98.50
2023-04-08T03:56:16.998Z,89.32
2023-04-08T03:58:43.659Z,89.10
2023-04-08T04:01:10.576Z,94.45
2023-04-08T04:03:37.406Z,87.75
2023-04-08T04:21:28.513Z,90.05
2023-04-08T04:23:55.640Z,80.57
2023-04-08T04:26:22.325Z,82.57
2023-04-08T04:53:12.487Z,97.18
2023-04-08T04:55:39.370Z,90.03
2023-04-08T04:58:06.608Z,87.32
2023-04-08T05:00:33.427Z,82.30
2023-04-08T05:03:00.620Z,81.18
2023-04-08T05:05:27.330Z,75.68
2023-04-08T05:07:54.008Z,86.65
2023-04-08T10:29:18.147Z,45.20
2023-04-08T10:31:47.494Z,43.25
2023-04-08T10:34:26.263Z,31.95
2023-04-08T10:36:55.408Z,39.42
2023-04-08T11:49:51.559Z,26.42
2023-04-08T11:52:18.250Z,26.92
2023-04-08T11:54:44.947Z,30.67
2023-04-08T12:09:46.938Z,20.83
2023-04-08T12:12:13.606Z,22.23
2023-04-08T12:14:40.388Z,26.15
2023-04-08T12:17:07.213Z,21.20
2023-04-08T12:19:34.835Z,21.23
2023-04-08T12:22:03.405Z,25.60
2023-04-08T12:24:30.169Z,19.33
2023-04-08T12:26:56.777Z,23.58
2023-04-08T12:29:23.430Z,27.17
2023-04-08T12:31:50.189Z,24.70
2023-04-08T12:57:22.933Z,18.75
2023-04-08T12:59:49.589Z,18.30
2023-04-08T13:02:16.512Z,19.17
2023-04-08T13:04:43.216Z,22.50
2023-04-08T13:07:09.844Z,17.80
2023-04-08T13:09:36.688Z,14.60
2023-04-08T13:12:03.715Z,20.35
2023-04-08T13:14:30.458Z,18.55
2023-04-08T13:16:58.124Z,18.52
2023-04-08T13:19:24.784Z,16.48
2023-04-08T13:21:51.373Z,17.00
2023-04-08T13:24:18.205Z,14.77
2023-04-08T13:26:44.889Z,15.20
2023-04-08T13:44:26.164Z,13.63
2023-04-08T13:47:18.961Z,18.17
2023-04-08T13:49:45.652Z,11.13
2023-04-08T14:20:05.467Z,14.75
2023-04-08T14:37:47.108Z,16.05
2023-04-08T14:40:13.824Z,11.50
2023-04-08T14:42:40.640Z,11.30
2023-04-08T14:45:07.929Z,14.93
2023-04-08T14:47:34.633Z,13.30
2023-04-08T14:50:01.305Z,14.57
2023-04-08T14:52:27.970Z,13.00
2023-04-08T14:54:54.614Z,13.52
2023-04-08T14:57:21.266Z,12.70
2023-04-08T14:59:48.098Z,17.30
2023-04-08T15:02:14.928Z,16.77
2023-04-08T15:04:41.631Z,17.30
2023-04-08T15:07:08.518Z,13.25
2023-04-08T15:09:35.361Z,14.55
2023-04-08T15:12:02.632Z,15.55
2023-04-08T15:14:29.344Z,18.50
2023-04-08T15:48:19.400Z,15.93
2023-04-08T17:25:11.531Z,7.32
2023-04-08T17:27:38.194Z,5.65
2023-04-08T17:30:05.228Z,6.22
2023-04-08T17:32:34.221Z,7.25
2023-04-08T17:35:01.961Z,7.85
2023-04-08T17:37:28.632Z,7.38
2023-04-08T17:39:55.563Z,6.63
2023-04-08T18:16:35.615Z,11.00
2023-04-08T18:19:02.272Z,11.70
2023-04-08T18:21:28.928Z,10.45
2023-04-08T18:23:55.542Z,15.10
2023-04-08T18:26:22.189Z,14.15
2023-04-08T18:28:48.791Z,11.35
2023-04-08T22:48:35.532Z,51.45
2023-04-08T22:51:02.199Z,50.40
2023-04-08T22:53:28.822Z,49.53
2023-04-08T22:55:55.400Z,43.50
2023-04-08T22:58:21.986Z,46.85
2023-04-08T23:23:55.164Z,52.55
2023-04-08T23:26:22.102Z,52.67
2023-04-08T23:28:48.795Z,52.08
2023-04-08T23:31:15.787Z,48.55
2023-04-08T23:33:42.519Z,47.17
2023-04-08T23:36:10.673Z,54.08
2023-04-08T23:38:37.520Z,55.67
2023-04-08T23:41:04.973Z,61.38
2023-04-08T23:43:31.862Z,48.20
2023-04-08T23:45:58.709Z,54.05
